Time;durP1;ratioP1;P1;durP2;ratioP2;P2;SDS_P1;SDS_P2;PMS_P1;PMS_P2;Temp;Humidity;BMP_temperature;BMP_pressure;BME280_temperature;BME280_humidity;BME280_pressure;Samples;Min_cycle;Max_cycle;Signal;HPM_P1;HPM_P2
2023/06/02 00:00:39;;;;;;;;;7.00;6.67;;;;;;;;4957199;28;46055;-85
2023/06/02 00:03:04;;;;;;;;;14.33;8.00;;;;;;;;4961082;28;45572;-83
2023/06/02 00:05:31;;;;;;;;;7.33;7.00;;;;;;;;4979651;28;45592;-83
2023/06/02 00:07:56;;;;;;;;;10.00;8.33;;;;;;;;4988781;28;45352;-80
2023/06/02 00:10:22;;;;;;;;;10.00;9.33;;;;;;;;4984326;28;45954;-81
2023/06/02 00:12:47;;;;;;;;;11.33;8.67;;;;;;;;4955922;28;45340;-83
2023/06/02 00:15:12;;;;;;;;;11.67;9.67;;;;;;;;4958908;28;45414;-82
2023/06/02 00:17:38;;;;;;;;;12.33;11.33;;;;;;;;4963335;28;45362;-82
2023/06/02 00:20:05;;;;;;;;;13.33;9.67;;;;;;;;4963667;28;45474;-82
2023/06/02 00:22:32;;;;;;;;;8.00;7.00;;;;;;;;4964590;28;45384;-83
2023/06/02 00:24:57;;;;;;;;;11.33;9.00;;;;;;;;4968483;28;45318;-83
2023/06/02 00:27:23;;;;;;;;;15.00;13.33;;;;;;;;4955127;28;45359;-83
2023/06/02 00:29:48;;;;;;;;;15.00;11.00;;;;;;;;4950291;28;46827;-81
2023/06/02 00:32:14;;;;;;;;;12.00;11.00;;;;;;;;4962341;28;47988;-82
2023/06/02 00:34:39;;;;;;;;;15.67;14.00;;;;;;;;4967259;28;45741;-84
2023/06/02 00:37:05;;;;;;;;;13.00;8.00;;;;;;;;4970690;28;45731;-82
2023/06/02 00:39:30;;;;;;;;;15.67;13.67;;;;;;;;4960285;28;45468;-84
2023/06/02 00:41:56;;;;;;;;;16.67;12.33;;;;;;;;4955115;28;46198;-84
2023/06/02 00:44:21;;;;;;;;;12.33;10.33;;;;;;;;4968354;28;45523;-83
2023/06/02 00:46:46;;;;;;;;;15.33;12.00;;;;;;;;4956805;28;45360;-82
2023/06/02 00:49:12;;;;;;;;;11.33;9.00;;;;;;;;4945767;28;45724;-83
2023/06/02 00:51:38;;;;;;;;;17.67;14.33;;;;;;;;4967524;28;45610;-83
2023/06/02 00:54:06;;;;;;;;;16.00;13.33;;;;;;;;4958023;28;45518;-81
2023/06/02 00:56:33;;;;;;;;;24.00;15.33;;;;;;;;4957295;28;45441;-82
2023/06/02 00:58:58;;;;;;;;;19.00;16.33;;;;;;;;4958158;28;45399;-84
2023/06/02 01:01:24;;;;;;;;;26.33;18.67;;;;;;;;4949538;28;45831;-83
2023/06/02 01:03:50;;;;;;;;;16.00;12.00;;;;;;;;4959651;28;45464;-82
2023/06/02 01:06:23;;;;;;;;;20.33;17.00;;;;;;;;4958134;28;45557;-82
2023/06/02 01:08:48;;;;;;;;;15.67;13.67;;;;;;;;4954142;28;45494;-85
2023/06/02 01:11:13;;;;;;;;;16.67;16.67;;;;;;;;4955712;28;45830;-83
2023/06/02 01:13:39;;;;;;;;;18.67;15.67;;;;;;;;4950018;28;45711;-83
2023/06/02 01:16:04;;;;;;;;;21.33;17.67;;;;;;;;4964406;28;45412;-83
2023/06/02 01:18:31;;;;;;;;;16.67;16.33;;;;;;;;4957143;28;45834;-84
2023/06/02 01:20:58;;;;;;;;;19.67;18.00;;;;;;;;4956096;28;48437;-81
2023/06/02 01:23:30;;;;;;;;;20.67;19.33;;;;;;;;4954408;28;45830;-83
2023/06/02 01:25:57;;;;;;;;;20.33;18.33;;;;;;;;4960074;28;45430;-81
2023/06/02 01:28:23;;;;;;;;;14.33;13.33;;;;;;;;4950593;28;45214;-81
2023/06/02 01:30:50;;;;;;;;;20.33;16.00;;;;;;;;4961800;28;47893;-82
2023/06/02 01:33:15;;;;;;;;;21.00;20.00;;;;;;;;4961273;28;45728;-80
2023/06/02 01:35:44;;;;;;;;;19.67;18.67;;;;;;;;4959800;28;45395;-83
2023/06/02 01:38:10;;;;;;;;;19.33;17.67;;;;;;;;4967019;28;46300;-82
2023/06/02 01:40:36;;;;;;;;;24.33;23.33;;;;;;;;4968025;28;45880;-83
2023/06/02 01:43:02;;;;;;;;;24.67;18.00;;;;;;;;4970979;28;45616;-82
2023/06/02 01:45:28;;;;;;;;;26.00;19.67;;;;;;;;4968946;28;45456;-83
2023/06/02 01:47:59;;;;;;;;;20.00;15.00;;;;;;;;4967420;28;45405;-83
2023/06/02 01:50:24;;;;;;;;;25.67;18.67;;;;;;;;4968570;28;45675;-84
2023/06/02 01:52:50;;;;;;;;;19.67;19.67;;;;;;;;4978433;28;45611;-82
2023/06/02 01:55:15;;;;;;;;;27.00;23.00;;;;;;;;4982996;28;45485;-82
2023/06/02 01:57:41;;;;;;;;;22.00;22.00;;;;;;;;4966647;28;44848;-81
2023/06/02 02:00:09;;;;;;;;;13.00;13.00;;;;;;;;4965037;28;45206;-83
2023/06/02 02:02:35;;;;;;;;;24.67;20.33;;;;;;;;4977800;28;44797;-82
2023/06/02 02:05:00;;;;;;;;;28.00;24.00;;;;;;;;4959270;28;44818;-83
2023/06/02 02:07:26;;;;;;;;;25.67;23.00;;;;;;;;4973955;28;45397;-81
2023/06/02 02:09:51;;;;;;;;;21.00;19.67;;;;;;;;4964063;28;46622;-81
2023/06/02 02:12:16;;;;;;;;;21.00;18.00;;;;;;;;4968556;28;45460;-82
2023/06/02 02:14:44;;;;;;;;;21.00;20.00;;;;;;;;4973848;28;45739;-81
2023/06/02 02:17:11;;;;;;;;;26.33;23.67;;;;;;;;4957588;28;45476;-81
2023/06/02 02:19:37;;;;;;;;;19.67;19.67;;;;;;;;4965239;28;47257;-82
2023/06/02 02:22:02;;;;;;;;;26.00;22.00;;;;;;;;4965379;28;45293;-81
2023/06/02 02:24:27;;;;;;;;;24.00;19.67;;;;;;;;4967601;28;45616;-80
2023/06/02 02:26:53;;;;;;;;;23.33;22.33;;;;;;;;4954816;28;46150;-81
2023/06/02 02:29:18;;;;;;;;;24.33;20.00;;;;;;;;4964296;28;47052;-81
2023/06/02 02:31:43;;;;;;;;;25.00;20.67;;;;;;;;4964166;28;45111;-82
2023/06/02 02:34:10;;;;;;;;;21.67;16.67;;;;;;;;4960971;28;45757;-83
2023/06/02 02:36:35;;;;;;;;;20.33;17.33;;;;;;;;4969247;28;45388;-81
2023/06/02 02:39:01;;;;;;;;;20.67;19.00;;;;;;;;4972723;28;49386;-82
2023/06/02 02:41:26;;;;;;;;;24.67;22.33;;;;;;;;4957705;28;45232;-83
2023/06/02 02:43:51;;;;;;;;;26.33;20.33;;;;;;;;4963342;28;45322;-82
2023/06/02 02:46:17;;;;;;;;;18.33;17.33;;;;;;;;4969970;28;45346;-81
2023/06/02 02:48:42;;;;;;;;;27.00;23.00;;;;;;;;4965482;28;47254;-82
2023/06/02 02:51:07;;;;;;;;;23.67;20.33;;;;;;;;4966311;28;46639;-81
2023/06/02 02:53:33;;;;;;;;;26.67;21.67;;;;;;;;4966171;28;45679;-82
2023/06/02 02:55:58;;;;;;;;;27.33;21.00;;;;;;;;4966394;28;45341;-82
2023/06/02 02:58:24;;;;;;;;;21.67;19.67;;;;;;;;4971416;28;45392;-82
2023/06/02 03:00:49;;;;;;;;;27.00;24.33;;;;;;;;4968550;28;45943;-80
2023/06/02 03:03:15;;;;;;;;;24.33;23.67;;;;;;;;4969833;28;45359;-81
2023/06/02 03:05:41;;;;;;;;;24.00;22.67;;;;;;;;4956106;28;46244;-82
2023/06/02 03:08:09;;;;;;;;;23.00;18.67;;;;;;;;4968303;28;46308;-83
2023/06/02 03:10:35;;;;;;;;;24.67;19.33;;;;;;;;4970288;28;44774;-82
2023/06/02 03:13:00;;;;;;;;;23.67;18.67;;;;;;;;4971455;28;44846;-82
2023/06/02 03:15:27;;;;;;;;;18.33;16.33;;;;;;;;4969493;28;45429;-81
2023/06/02 03:17:55;;;;;;;;;31.67;27.67;;;;;;;;4969853;28;45414;-82
2023/06/02 03:20:21;;;;;;;;;27.33;23.33;;;;;;;;4952714;28;45549;-82
2023/06/02 03:22:47;;;;;;;;;21.00;20.00;;;;;;;;4971221;28;45254;-83
2023/06/02 03:25:13;;;;;;;;;22.33;21.33;;;;;;;;4960647;28;46113;-80
2023/06/02 03:27:38;;;;;;;;;29.00;26.33;;;;;;;;4964702;28;47119;-84
2023/06/02 03:30:04;;;;;;;;;20.67;20.00;;;;;;;;4979187;28;45286;-81
2023/06/02 03:32:29;;;;;;;;;25.00;22.33;;;;;;;;4982465;28;45579;-80
2023/06/02 03:34:54;;;;;;;;;31.00;28.00;;;;;;;;4976793;28;46040;-81
2023/06/02 03:37:20;;;;;;;;;26.33;24.67;;;;;;;;4969294;28;45758;-81
2023/06/02 03:39:45;;;;;;;;;23.33;21.33;;;;;;;;4954947;28;46407;-82
2023/06/02 03:42:10;;;;;;;;;25.33;23.00;;;;;;;;4970633;28;44845;-83
2023/06/02 03:44:36;;;;;;;;;28.67;25.33;;;;;;;;4969387;28;45516;-82
2023/06/02 03:47:01;;;;;;;;;23.33;21.33;;;;;;;;4959589;28;45422;-81
2023/06/02 03:49:29;;;;;;;;;27.33;24.00;;;;;;;;4952406;28;45430;-82
2023/06/02 03:51:54;;;;;;;;;25.67;23.67;;;;;;;;4970713;28;44925;-81
2023/06/02 03:54:20;;;;;;;;;22.33;20.67;;;;;;;;4964527;28;47140;-81
2023/06/02 03:56:45;;;;;;;;;20.67;17.33;;;;;;;;4971482;28;46274;-81
2023/06/02 03:59:10;;;;;;;;;27.67;23.33;;;;;;;;4980936;28;45252;-79
2023/06/02 04:01:36;;;;;;;;;26.67;25.00;;;;;;;;4979807;28;44841;-79
2023/06/02 04:04:01;;;;;;;;;23.67;22.33;;;;;;;;4964451;28;45531;-82
2023/06/02 04:06:28;;;;;;;;;26.00;25.67;;;;;;;;4966138;28;46490;-80
2023/06/02 04:08:53;;;;;;;;;33.00;25.33;;;;;;;;4969241;28;45420;-82
2023/06/02 04:11:22;;;;;;;;;33.00;28.00;;;;;;;;4967649;28;45768;-80
2023/06/02 04:13:47;;;;;;;;;24.33;20.33;;;;;;;;4965962;28;45449;-81
2023/06/02 04:16:12;;;;;;;;;39.33;29.33;;;;;;;;4965633;28;45793;-81
2023/06/02 04:18:38;;;;;;;;;24.67;21.67;;;;;;;;4961358;28;45627;-82
2023/06/02 04:21:07;;;;;;;;;26.00;23.00;;;;;;;;4973831;28;45443;-83
2023/06/02 04:23:32;;;;;;;;;30.33;30.00;;;;;;;;4954088;28;45406;-81
2023/06/02 04:25:58;;;;;;;;;35.00;31.33;;;;;;;;4967199;28;46145;-82
2023/06/02 04:28:23;;;;;;;;;49.00;36.00;;;;;;;;4967347;28;45511;-83
2023/06/02 04:30:52;;;;;;;;;32.00;27.00;;;;;;;;4970144;28;45523;-82
2023/06/02 04:33:18;;;;;;;;;30.67;27.67;;;;;;;;4959997;28;46393;-81
2023/06/02 04:35:44;;;;;;;;;24.00;23.00;;;;;;;;4954869;28;45548;-83
2023/06/02 04:38:09;;;;;;;;;30.00;26.33;;;;;;;;4952545;28;45476;-82
2023/06/02 04:40:37;;;;;;;;;23.67;23.33;;;;;;;;4954176;28;45926;-80
2023/06/02 04:43:03;;;;;;;;;18.33;16.33;;;;;;;;4961018;28;45527;-82
2023/06/02 04:45:28;;;;;;;;;27.00;21.00;;;;;;;;4952909;28;45503;-81
2023/06/02 04:47:53;;;;;;;;;29.67;24.67;;;;;;;;4955815;28;45806;-80
2023/06/02 04:50:19;;;;;;;;;37.33;32.00;;;;;;;;4959166;28;45332;-81
2023/06/02 04:52:44;;;;;;;;;25.00;20.67;;;;;;;;4957819;28;45476;-82
2023/06/02 04:55:10;;;;;;;;;30.67;30.33;;;;;;;;4956901;28;45332;-81
2023/06/02 04:57:36;;;;;;;;;35.00;30.67;;;;;;;;4960656;28;45477;-82
2023/06/02 05:00:04;;;;;;;;;39.67;33.33;;;;;;;;4954480;28;45654;-80
2023/06/02 05:02:30;;;;;;;;;28.67;27.00;;;;;;;;4963525;28;45433;-83
2023/06/02 05:04:55;;;;;;;;;36.67;32.33;;;;;;;;4965361;28;45563;-85
2023/06/02 05:07:21;;;;;;;;;27.33;21.33;;;;;;;;4968604;28;45540;-83
2023/06/02 05:09:46;;;;;;;;;34.33;32.33;;;;;;;;4973373;28;45572;-84
2023/06/02 05:12:12;;;;;;;;;42.00;34.00;;;;;;;;4957560;28;45856;-83
2023/06/02 05:14:37;;;;;;;;;39.00;33.00;;;;;;;;4972246;28;45581;-83
2023/06/02 05:17:03;;;;;;;;;44.33;35.33;;;;;;;;4967365;28;45425;-84
2023/06/02 05:19:28;;;;;;;;;35.33;30.67;;;;;;;;4956316;28;45441;-82
2023/06/02 05:21:53;;;;;;;;;45.33;35.67;;;;;;;;4970937;28;46203;-81
2023/06/02 05:24:18;;;;;;;;;37.67;32.33;;;;;;;;4962624;28;46710;-82
2023/06/02 05:26:44;;;;;;;;;40.00;32.67;;;;;;;;4959729;28;45570;-82
2023/06/02 05:29:09;;;;;;;;;35.00;29.67;;;;;;;;4948216;28;45391;-80
2023/06/02 05:31:35;;;;;;;;;33.67;28.33;;;;;;;;4964829;28;45197;-81
2023/06/02 05:34:00;;;;;;;;;34.33;32.00;;;;;;;;4957292;28;46188;-83
2023/06/02 05:36:25;;;;;;;;;44.33;36.67;;;;;;;;4957229;28;45731;-81
2023/06/02 05:38:51;;;;;;;;;42.67;35.00;;;;;;;;4958304;28;45267;-82
2023/06/02 05:41:16;;;;;;;;;45.67;33.33;;;;;;;;4957582;28;45820;-81
2023/06/02 05:43:41;;;;;;;;;44.67;34.33;;;;;;;;4961510;28;46998;-82
2023/06/02 05:46:07;;;;;;;;;39.67;32.33;;;;;;;;4963843;28;45636;-83
2023/06/02 05:48:32;;;;;;;;;36.67;29.00;;;;;;;;4966896;28;44909;-82
2023/06/02 05:50:57;;;;;;;;;36.00;30.00;;;;;;;;4961538;28;45397;-82
2023/06/02 05:53:22;;;;;;;;;44.00;35.67;;;;;;;;4958549;28;48062;-80
2023/06/02 05:55:48;;;;;;;;;39.33;34.67;;;;;;;;4946259;28;45383;-85
2023/06/02 05:58:13;;;;;;;;;39.00;32.67;;;;;;;;4941438;28;45610;-83
2023/06/02 06:00:38;;;;;;;;;41.67;33.33;;;;;;;;4949762;28;45914;-82
2023/06/02 06:03:04;;;;;;;;;49.00;38.33;;;;;;;;4960882;28;46149;-83
2023/06/02 06:05:34;;;;;;;;;40.67;36.33;;;;;;;;4974474;28;45421;-84
2023/06/02 06:08:00;;;;;;;;;44.33;35.33;;;;;;;;4964090;28;45216;-84
2023/06/02 06:10:25;;;;;;;;;25.33;23.33;;;;;;;;4968274;28;45751;-85
2023/06/02 06:12:50;;;;;;;;;35.00;28.00;;;;;;;;4966667;28;45025;-83
2023/06/02 06:15:16;;;;;;;;;41.00;36.67;;;;;;;;4983497;28;45361;-81
2023/06/02 06:17:58;;;;;;;;;48.33;36.00;;;;;;;;4977402;28;45380;-81
2023/06/02 06:20:23;;;;;;;;;40.67;34.67;;;;;;;;4982192;28;45666;-81
2023/06/02 06:22:49;;;;;;;;;42.33;36.33;;;;;;;;4969205;28;47101;-83
2023/06/02 06:25:14;;;;;;;;;35.67;31.33;;;;;;;;4983177;28;45318;-83
2023/06/02 06:27:40;;;;;;;;;36.00;30.00;;;;;;;;4965508;28;44800;-84
2023/06/02 06:30:06;;;;;;;;;44.00;38.33;;;;;;;;4966913;28;45259;-82
2023/06/02 06:32:31;;;;;;;;;38.33;32.67;;;;;;;;4965406;28;45229;-81
2023/06/02 06:34:57;;;;;;;;;51.00;37.33;;;;;;;;4973976;28;45337;-82
2023/06/02 06:37:22;;;;;;;;;36.00;32.00;;;;;;;;4962010;28;46250;-81
2023/06/02 06:39:47;;;;;;;;;36.33;34.00;;;;;;;;4987078;28;44798;-81
2023/06/02 06:42:12;;;;;;;;;39.33;34.67;;;;;;;;4975985;28;47059;-82
2023/06/02 06:44:38;;;;;;;;;41.00;35.00;;;;;;;;4975856;28;45560;-83
2023/06/02 06:47:03;;;;;;;;;28.67;24.67;;;;;;;;4976784;28;45272;-83
2023/06/02 06:49:28;;;;;;;;;36.00;29.00;;;;;;;;4980484;28;44963;-80
2023/06/02 06:51:54;;;;;;;;;46.00;36.67;;;;;;;;4979207;28;45094;-82
2023/06/02 06:54:19;;;;;;;;;31.67;25.33;;;;;;;;4979428;28;44775;-80
2023/06/02 06:56:45;;;;;;;;;33.33;30.67;;;;;;;;4966412;28;45460;-81
2023/06/02 06:59:11;;;;;;;;;47.33;36.33;;;;;;;;4966632;28;45338;-82
2023/06/02 07:01:37;;;;;;;;;50.67;37.00;;;;;;;;4955488;28;47397;-81
2023/06/02 07:04:02;;;;;;;;;47.67;38.00;;;;;;;;4968300;28;45281;-82
2023/06/02 07:06:28;;;;;;;;;34.67;32.67;;;;;;;;4983222;28;44794;-82
2023/06/02 07:08:53;;;;;;;;;47.33;37.67;;;;;;;;4969210;28;45640;-85
2023/06/02 07:11:18;;;;;;;;;37.33;33.00;;;;;;;;4968383;28;45512;-82
2023/06/02 07:13:44;;;;;;;;;38.33;28.33;;;;;;;;4973365;28;45362;-82
2023/06/02 07:16:09;;;;;;;;;42.00;35.67;;;;;;;;4968267;28;44795;-81
2023/06/02 07:18:35;;;;;;;;;41.33;34.00;;;;;;;;4980550;28;45094;-81
2023/06/02 07:21:00;;;;;;;;;29.33;26.33;;;;;;;;4979585;28;45576;-82
2023/06/02 07:23:26;;;;;;;;;35.33;30.00;;;;;;;;4987112;28;45317;-81
2023/06/02 07:25:51;;;;;;;;;45.00;35.67;;;;;;;;4962568;28;45716;-81
2023/06/02 07:28:16;;;;;;;;;32.00;28.67;;;;;;;;4955388;28;45382;-82
2023/06/02 07:30:47;;;;;;;;;33.33;26.33;;;;;;;;4967537;28;45079;-81
2023/06/02 07:33:13;;;;;;;;;31.00;29.33;;;;;;;;4967269;28;45743;-80
2023/06/02 07:35:38;;;;;;;;;28.67;26.67;;;;;;;;4966472;28;45185;-80
2023/06/02 07:38:03;;;;;;;;;25.00;22.33;;;;;;;;4968717;28;45537;-82
2023/06/02 07:40:29;;;;;;;;;17.33;17.33;;;;;;;;4952848;28;46218;-82
2023/06/02 07:42:54;;;;;;;;;21.00;18.00;;;;;;;;4972858;28;45202;-82
2023/06/02 07:45:19;;;;;;;;;30.67;25.00;;;;;;;;4985241;28;44789;-78
2023/06/02 07:47:45;;;;;;;;;22.00;20.33;;;;;;;;4972631;28;44875;-80
2023/06/02 07:50:11;;;;;;;;;20.67;19.67;;;;;;;;4970963;28;47661;-78
2023/06/02 07:52:36;;;;;;;;;21.00;20.33;;;;;;;;4994912;28;44722;-80
2023/06/02 07:55:03;;;;;;;;;22.33;18.67;;;;;;;;4995041;28;45418;-80
2023/06/02 07:57:29;;;;;;;;;19.67;18.67;;;;;;;;4969795;28;45769;-82
2023/06/02 07:59:54;;;;;;;;;24.67;22.67;;;;;;;;4960658;28;45394;-80
2023/06/02 08:02:19;;;;;;;;;23.67;23.67;;;;;;;;4963144;28;45416;-81
2023/06/02 08:04:45;;;;;;;;;31.00;25.00;;;;;;;;4966674;28;45495;-81
2023/06/02 08:07:10;;;;;;;;;20.67;20.67;;;;;;;;4966776;28;45378;-79
2023/06/02 08:09:37;;;;;;;;;25.00;24.67;;;;;;;;4964220;28;45598;-82
2023/06/02 08:12:02;;;;;;;;;25.00;21.33;;;;;;;;4958458;28;45470;-81
2023/06/02 08:14:27;;;;;;;;;19.67;18.33;;;;;;;;4964009;28;45421;-82
2023/06/02 08:16:55;;;;;;;;;25.00;21.67;;;;;;;;4962831;28;45912;-80
2023/06/02 08:19:22;;;;;;;;;24.67;16.67;;;;;;;;4953318;28;45363;-79
2023/06/02 08:21:47;;;;;;;;;26.33;20.67;;;;;;;;4957006;28;45619;-81
2023/06/02 08:24:12;;;;;;;;;22.67;20.67;;;;;;;;4954041;28;45446;-81
2023/06/02 08:26:39;;;;;;;;;18.00;14.67;;;;;;;;4951731;28;45723;-81
2023/06/02 08:29:08;;;;;;;;;22.67;19.00;;;;;;;;4953667;28;45402;-82
2023/06/02 08:31:35;;;;;;;;;25.33;22.00;;;;;;;;4955556;28;45552;-81
2023/06/02 08:34:00;;;;;;;;;21.67;18.67;;;;;;;;4958246;28;45275;-80
2023/06/02 08:36:27;;;;;;;;;26.67;21.67;;;;;;;;4959413;28;45361;-82
2023/06/02 08:38:52;;;;;;;;;20.67;18.67;;;;;;;;4957945;28;46495;-83
2023/06/02 08:41:18;;;;;;;;;26.00;23.00;;;;;;;;4956714;28;45556;-81
2023/06/02 08:43:44;;;;;;;;;24.00;22.00;;;;;;;;4956998;28;45393;-82
2023/06/02 08:46:13;;;;;;;;;22.00;19.00;;;;;;;;4957773;28;45805;-82
2023/06/02 08:48:39;;;;;;;;;24.67;22.67;;;;;;;;4964899;28;46718;-83
2023/06/02 08:51:08;;;;;;;;;23.67;23.67;;;;;;;;4960671;28;45739;-81
2023/06/02 08:53:35;;;;;;;;;21.33;19.00;;;;;;;;4951780;28;45777;-81
2023/06/02 08:56:00;;;;;;;;;20.67;20.00;;;;;;;;4941372;28;45839;-82
2023/06/02 08:58:28;;;;;;;;;20.67;19.67;;;;;;;;4954771;28;46502;-80
2023/06/02 09:00:54;;;;;;;;;20.67;18.00;;;;;;;;4951317;28;45792;-81
2023/06/02 09:03:19;;;;;;;;;18.00;16.67;;;;;;;;4959522;28;46056;-83
2023/06/02 09:05:44;;;;;;;;;20.67;18.00;;;;;;;;4956592;28;45401;-80
2023/06/02 09:08:10;;;;;;;;;20.67;17.00;;;;;;;;4947461;28;45508;-81
2023/06/02 09:10:42;;;;;;;;;18.67;18.33;;;;;;;;4955735;28;45794;-81
2023/06/02 09:13:08;;;;;;;;;17.00;15.00;;;;;;;;4967770;28;45941;-82
2023/06/02 09:15:35;;;;;;;;;22.00;20.00;;;;;;;;4955408;28;46030;-82
2023/06/02 09:18:11;;;;;;;;;25.67;22.00;;;;;;;;4968762;28;48084;-81
2023/06/02 09:20:38;;;;;;;;;14.33;14.33;;;;;;;;4947506;28;45770;-81
2023/06/02 09:23:03;;;;;;;;;21.67;19.67;;;;;;;;4965180;28;45615;-83
2023/06/02 09:25:29;;;;;;;;;19.67;18.00;;;;;;;;4959406;28;45640;-83
2023/06/02 09:27:56;;;;;;;;;17.67;16.00;;;;;;;;4957622;28;45473;-82
2023/06/02 09:30:21;;;;;;;;;25.00;21.67;;;;;;;;4956553;28;45560;-81
2023/06/02 09:32:57;;;;;;;;;24.00;20.67;;;;;;;;4963908;28;46453;-80
2023/06/02 09:35:34;;;;;;;;;22.67;22.67;;;;;;;;4944022;28;45961;-83
2023/06/02 09:37:59;;;;;;;;;18.67;17.67;;;;;;;;4953881;28;45500;-82
2023/06/02 09:40:28;;;;;;;;;16.00;14.00;;;;;;;;4953561;28;45697;-81
2023/06/02 09:42:53;;;;;;;;;19.33;16.33;;;;;;;;4953213;28;45821;-82
2023/06/02 09:45:19;;;;;;;;;17.67;17.67;;;;;;;;4942424;28;45682;-82
2023/06/02 09:47:44;;;;;;;;;15.00;15.00;;;;;;;;4953315;28;45835;-81
2023/06/02 09:50:29;;;;;;;;;15.67;15.67;;;;;;;;4961328;28;45866;-82
2023/06/02 09:53:08;;;;;;;;;21.00;18.67;;;;;;;;4955526;28;45727;-82
2023/06/02 09:55:36;;;;;;;;;16.33;16.33;;;;;;;;4955488;28;46092;-83
2023/06/02 09:58:02;;;;;;;;;17.00;15.33;;;;;;;;4956575;28;45413;-82
2023/06/02 10:00:27;;;;;;;;;17.67;17.67;;;;;;;;4956582;28;45394;-82
2023/06/02 10:02:53;;;;;;;;;17.00;16.33;;;;;;;;4958871;28;45410;-84
2023/06/02 10:05:20;;;;;;;;;17.00;17.00;;;;;;;;4953449;28;45661;-83
2023/06/02 10:08:04;;;;;;;;;21.33;20.33;;;;;;;;4953732;28;45733;-83
2023/06/02 10:10:43;;;;;;;;;23.00;21.33;;;;;;;;4954032;28;45810;-82
2023/06/02 10:13:14;;;;;;;;;16.67;15.33;;;;;;;;4952054;28;45410;-86
2023/06/02 10:15:49;;;;;;;;;19.00;19.00;;;;;;;;4944631;28;45478;-82
2023/06/02 10:18:33;;;;;;;;;20.67;18.67;;;;;;;;4954722;28;46199;-82
2023/06/02 10:21:01;;;;;;;;;17.00;15.00;;;;;;;;4961150;28;45506;-83
2023/06/02 10:23:47;;;;;;;;;22.00;19.67;;;;;;;;4956919;28;45488;-81
2023/06/02 10:26:15;;;;;;;;;16.67;15.67;;;;;;;;4958154;28;45549;-82
2023/06/02 10:28:41;;;;;;;;;21.00;18.67;;;;;;;;4963796;28;45504;-83
2023/06/02 10:31:07;;;;;;;;;21.67;19.67;;;;;;;;4957182;28;45808;-82
2023/06/02 10:33:46;;;;;;;;;16.67;16.00;;;;;;;;4956240;28;45518;-82
2023/06/02 10:36:13;;;;;;;;;17.67;16.00;;;;;;;;4942682;28;45903;-82
2023/06/02 10:38:39;;;;;;;;;17.67;15.33;;;;;;;;4949980;28;47970;-81
2023/06/02 10:41:04;;;;;;;;;17.00;16.33;;;;;;;;4941964;28;45566;-82
2023/06/02 10:43:32;;;;;;;;;20.33;17.67;;;;;;;;4948472;28;45460;-81
2023/06/02 10:46:17;;;;;;;;;23.00;18.67;;;;;;;;4944495;28;46023;-81
2023/06/02 10:48:42;;;;;;;;;19.33;18.00;;;;;;;;4948113;28;45436;-82
2023/06/02 10:51:08;;;;;;;;;22.00;20.00;;;;;;;;4943568;28;45388;-81
2023/06/02 10:53:54;;;;;;;;;21.67;16.00;;;;;;;;4949204;28;45361;-81
2023/06/02 10:56:34;;;;;;;;;14.67;14.33;;;;;;;;4950281;28;45783;-83
2023/06/02 10:59:00;;;;;;;;;21.67;16.00;;;;;;;;4948939;28;45361;-83
2023/06/02 11:01:45;;;;;;;;;24.00;22.00;;;;;;;;4948202;28;45691;-83
2023/06/02 11:04:25;;;;;;;;;18.67;17.67;;;;;;;;4950445;28;45390;-81
2023/06/02 11:07:10;;;;;;;;;12.33;11.00;;;;;;;;4948517;28;45542;-81
2023/06/02 11:09:35;;;;;;;;;20.33;19.67;;;;;;;;4946784;28;46513;-80
2023/06/02 11:12:00;;;;;;;;;14.00;11.67;;;;;;;;4940171;28;45779;-82
2023/06/02 11:14:26;;;;;;;;;16.33;15.33;;;;;;;;4947978;28;45530;-81
2023/06/02 11:17:10;;;;;;;;;17.00;15.67;;;;;;;;4943882;28;45475;-79
2023/06/02 11:19:50;;;;;;;;;18.67;18.00;;;;;;;;4944178;28;46280;-82
2023/06/02 11:22:18;;;;;;;;;20.33;17.33;;;;;;;;4948444;28;45357;-82
2023/06/02 11:24:43;;;;;;;;;17.00;15.67;;;;;;;;4945206;28;45401;-80
2023/06/02 11:27:08;;;;;;;;;20.00;15.33;;;;;;;;4951652;28;46033;-82
2023/06/02 11:29:33;;;;;;;;;17.00;15.33;;;;;;;;4951280;28;48838;-81
2023/06/02 11:32:00;;;;;;;;;21.33;18.67;;;;;;;;4948783;28;46118;-80
2023/06/02 11:34:26;;;;;;;;;20.33;18.33;;;;;;;;4947865;28;45547;-82
2023/06/02 11:36:53;;;;;;;;;17.67;16.33;;;;;;;;4950283;28;46061;-81
2023/06/02 11:39:19;;;;;;;;;26.67;20.33;;;;;;;;4949111;28;45735;-81
2023/06/02 11:41:57;;;;;;;;;17.33;12.67;;;;;;;;4944744;28;45511;-81
2023/06/02 11:44:22;;;;;;;;;22.33;18.33;;;;;;;;4947871;28;45341;-81
2023/06/02 11:46:48;;;;;;;;;17.67;14.00;;;;;;;;4944307;28;45378;-80
2023/06/02 11:49:14;;;;;;;;;19.33;17.33;;;;;;;;4941388;28;46249;-79
2023/06/02 11:51:39;;;;;;;;;12.67;12.67;;;;;;;;4947095;28;45541;-82
2023/06/02 11:54:08;;;;;;;;;15.00;15.00;;;;;;;;4950206;28;45475;-82
2023/06/02 11:56:35;;;;;;;;;23.33;20.00;;;;;;;;4949342;28;45749;-84
2023/06/02 11:59:00;;;;;;;;;15.33;13.33;;;;;;;;4953245;28;45959;-80
2023/06/02 12:01:30;;;;;;;;;16.00;16.00;;;;;;;;4941405;28;45860;-81
2023/06/02 12:04:01;;;;;;;;;17.67;14.00;;;;;;;;4946669;28;45592;-79
2023/06/02 12:06:27;;;;;;;;;16.33;15.00;;;;;;;;4945030;28;47133;-83
2023/06/02 12:08:52;;;;;;;;;12.67;10.00;;;;;;;;4949891;28;46158;-83
2023/06/02 12:11:18;;;;;;;;;20.00;17.67;;;;;;;;4948041;28;45623;-79
2023/06/02 12:13:56;;;;;;;;;19.33;17.33;;;;;;;;4944682;28;45523;-81
2023/06/02 12:16:24;;;;;;;;;18.00;15.67;;;;;;;;4948930;28;45927;-80
2023/06/02 12:18:49;;;;;;;;;23.00;19.33;;;;;;;;4950645;28;45670;-83
2023/06/02 12:21:22;;;;;;;;;17.67;15.33;;;;;;;;4954005;28;45848;-80
2023/06/02 12:23:47;;;;;;;;;24.67;19.67;;;;;;;;4949149;28;45463;-82
2023/06/02 12:26:13;;;;;;;;;16.00;15.00;;;;;;;;4951883;28;45967;-83
2023/06/02 12:28:39;;;;;;;;;16.67;15.00;;;;;;;;4953422;28;46283;-83
2023/06/02 12:31:04;;;;;;;;;15.00;14.67;;;;;;;;4953091;28;45353;-82
2023/06/02 12:33:29;;;;;;;;;16.67;16.67;;;;;;;;4946502;28;45712;-81
2023/06/02 12:35:55;;;;;;;;;24.00;18.33;;;;;;;;4952006;28;45530;-82
2023/06/02 12:38:20;;;;;;;;;14.67;14.33;;;;;;;;4950679;28;46493;-81
2023/06/02 12:40:45;;;;;;;;;7.33;5.67;;;;;;;;4951829;28;45389;-82
2023/06/02 12:43:12;;;;;;;;;16.33;12.33;;;;;;;;4954263;28;45463;-82
2023/06/02 12:45:38;;;;;;;;;18.33;14.67;;;;;;;;4951419;28;46452;-84
2023/06/02 12:48:03;;;;;;;;;11.67;11.67;;;;;;;;4955799;28;45972;-82
2023/06/02 12:50:29;;;;;;;;;21.67;20.67;;;;;;;;4951503;28;45794;-82
2023/06/02 12:52:54;;;;;;;;;16.00;15.33;;;;;;;;4943166;28;45190;-81
2023/06/02 12:55:19;;;;;;;;;15.33;13.67;;;;;;;;4948286;28;45615;-82
2023/06/02 12:57:48;;;;;;;;;14.67;14.33;;;;;;;;4953933;28;46369;-81
2023/06/02 13:00:17;;;;;;;;;18.00;15.33;;;;;;;;4946027;28;45433;-81
2023/06/02 13:02:43;;;;;;;;;18.33;15.67;;;;;;;;4948005;28;45608;-80
2023/06/02 13:05:09;;;;;;;;;17.67;15.67;;;;;;;;4947544;28;45748;-80
2023/06/02 13:07:36;;;;;;;;;15.67;14.67;;;;;;;;4949390;28;45865;-81
2023/06/02 13:10:01;;;;;;;;;14.67;14.67;;;;;;;;4951349;28;45563;-82
2023/06/02 13:12:26;;;;;;;;;16.00;13.33;;;;;;;;4949897;28;45488;-83
2023/06/02 13:14:51;;;;;;;;;24.67;16.00;;;;;;;;4952544;28;45335;-82
2023/06/02 13:17:16;;;;;;;;;17.33;15.00;;;;;;;;4952507;28;46353;-82
2023/06/02 13:19:46;;;;;;;;;17.00;15.00;;;;;;;;4951542;28;45882;-81
2023/06/02 13:22:11;;;;;;;;;17.00;16.00;;;;;;;;4949686;28;45871;-80
2023/06/02 13:24:37;;;;;;;;;16.00;14.67;;;;;;;;4947726;28;46043;-81
2023/06/02 13:27:02;;;;;;;;;14.00;11.67;;;;;;;;4954611;28;46390;-81
2023/06/02 13:29:28;;;;;;;;;18.67;14.67;;;;;;;;4944159;28;45875;-81
2023/06/02 13:31:53;;;;;;;;;16.33;14.67;;;;;;;;4952517;28;45497;-80
2023/06/02 13:34:18;;;;;;;;;16.67;12.67;;;;;;;;4949041;28;45782;-81
2023/06/02 13:36:44;;;;;;;;;13.00;9.33;;;;;;;;4955638;28;45688;-82
2023/06/02 13:39:10;;;;;;;;;16.33;14.33;;;;;;;;4962337;28;45893;-83
2023/06/02 13:41:35;;;;;;;;;16.67;16.33;;;;;;;;4944884;28;45641;-81
2023/06/02 13:44:00;;;;;;;;;16.67;14.67;;;;;;;;4948417;28;46041;-81
2023/06/02 13:46:26;;;;;;;;;16.00;15.67;;;;;;;;4951840;28;46166;-84
2023/06/02 13:48:51;;;;;;;;;25.33;24.00;;;;;;;;4941126;28;45346;-81
2023/06/02 13:51:16;;;;;;;;;16.00;14.67;;;;;;;;4944570;28;45589;-81
2023/06/02 13:53:41;;;;;;;;;7.67;7.00;;;;;;;;4949331;28;45862;-83
2023/06/02 13:56:07;;;;;;;;;22.50;20.50;;;;;;;;4946940;28;47529;-82
2023/06/02 13:58:35;;;;;;;;;19.67;16.33;;;;;;;;4952055;28;45391;-79
2023/06/02 14:01:01;;;;;;;;;20.00;17.00;;;;;;;;4943878;28;45783;-81
2023/06/02 14:03:26;;;;;;;;;14.00;12.67;;;;;;;;4953920;28;46038;-82
2023/06/02 14:05:51;;;;;;;;;16.33;14.67;;;;;;;;4952997;28;45936;-81
2023/06/02 14:08:17;;;;;;;;;21.67;16.00;;;;;;;;4943524;28;45561;-82
2023/06/02 14:10:42;;;;;;;;;15.33;15.33;;;;;;;;4950042;28;45514;-81
2023/06/02 14:13:08;;;;;;;;;20.33;19.00;;;;;;;;4945858;28;44991;-81
2023/06/02 14:15:33;;;;;;;;;18.33;16.67;;;;;;;;4948869;28;46604;-81